Time;durP1;ratioP1;P1;durP2;ratioP2;P2;SDS_P1;SDS_P2;PMS_P1;PMS_P2;Temp;Humidity;BMP_temperature;BMP_pressure;BME280_temperature;BME280_humidity;BME280_pressure;Samples;Min_cycle;Max_cycle;Signal;HPM_P1;HPM_P2
2022/05/12 00:00:24;;;;;;;11.38;2.90;;;15.60;70.20;;;;;;5073667;28;20049;-89
2022/05/12 00:02:51;;;;;;;10.73;2.47;;;15.60;70.30;;;;;;5075212;28;20468;-90
2022/05/12 00:05:19;;;;;;;11.45;2.97;;;15.50;70.30;;;;;;5075454;28;20044;-90
2022/05/12 00:07:47;;;;;;;12.20;3.08;;;15.50;70.40;;;;;;5075536;28;20102;-90
2022/05/12 00:10:16;;;;;;;14.93;3.72;;;15.50;70.40;;;;;;5058000;28;20053;-90
2022/05/12 00:12:44;;;;;;;12.95;3.05;;;15.40;70.40;;;;;;5059910;28;20113;-91
2022/05/12 00:15:20;;;;;;;14.70;3.10;;;15.40;70.50;;;;;;5074982;28;20052;-90
2022/05/12 00:17:47;;;;;;;15.15;2.95;;;15.40;70.50;;;;;;5075036;28;20057;-90
2022/05/12 00:20:18;;;;;;;12.45;2.80;;;15.40;70.60;;;;;;5074968;28;20552;-90
2022/05/12 00:22:45;;;;;;;10.85;3.10;;;15.40;70.60;;;;;;5075434;28;20086;-91
2022/05/12 00:25:15;;;;;;;10.98;2.80;;;15.40;70.60;;;;;;5075303;28;20118;-91
2022/05/12 00:27:42;;;;;;;11.93;3.08;;;15.30;70.70;;;;;;5075304;28;20060;-91
2022/05/12 00:30:11;;;;;;;11.60;3.00;;;15.30;70.70;;;;;;5073956;28;20101;-90
2022/05/12 00:32:55;;;;;;;10.68;2.45;;;15.30;70.70;;;;;;5074016;28;20047;-90
2022/05/12 00:38:09;;;;;;;15.13;3.42;;;15.20;70.70;;;;;;5054896;28;20522;-90
2022/05/12 00:40:38;;;;;;;13.52;2.72;;;15.20;70.80;;;;;;5070685;28;20049;-90
2022/05/12 00:43:09;;;;;;;15.98;3.10;;;15.20;70.80;;;;;;5066526;28;20048;-90
2022/05/12 00:45:37;;;;;;;12.15;3.28;;;15.10;70.80;;;;;;5074749;28;20045;-89
2022/05/12 00:48:05;;;;;;;14.38;3.72;;;15.10;70.80;;;;;;5072483;28;20084;-90
2022/05/12 00:50:39;;;;;;;9.88;2.92;;;15.00;70.90;;;;;;5074874;28;20049;-91
2022/05/12 00:53:08;;;;;;;14.25;3.03;;;15.00;70.90;;;;;;5054936;28;20099;-90
2022/05/12 00:55:38;;;;;;;14.00;3.17;;;15.00;71.00;;;;;;5072836;28;20461;-91
2022/05/12 00:58:07;;;;;;;10.85;3.10;;;14.90;71.10;;;;;;5073661;28;20494;-91
2022/05/12 01:00:37;;;;;;;15.90;3.38;;;14.90;71.10;;;;;;5074688;28;20052;-91
2022/05/12 01:03:09;;;;;;;10.63;3.03;;;14.90;71.20;;;;;;5073064;28;20048;-92
2022/05/12 01:05:36;;;;;;;13.23;3.15;;;14.90;71.30;;;;;;5074613;28;20045;-91
2022/05/12 01:08:04;;;;;;;15.10;3.40;;;14.90;71.30;;;;;;5074715;28;20114;-92
2022/05/12 01:10:31;;;;;;;15.25;3.22;;;14.90;71.40;;;;;;5074541;28;20049;-90
2022/05/12 01:12:58;;;;;;;13.60;3.70;;;14.80;71.50;;;;;;5074354;28;20048;-91
2022/05/12 01:15:26;;;;;;;11.68;3.35;;;14.80;71.50;;;;;;5071900;28;20049;-90
2022/05/12 01:18:06;;;;;;;17.33;3.60;;;14.80;71.60;;;;;;5074284;28;20102;-91
2022/05/12 01:20:34;;;;;;;13.95;3.28;;;14.70;71.70;;;;;;5073065;28;20060;-91
2022/05/12 01:23:32;;;;;;;13.85;3.50;;;14.70;71.80;;;;;;5073215;28;20090;-92
2022/05/12 01:26:10;;;;;;;10.98;3.63;;;14.70;71.80;;;;;;5016107;28;20099;-91
2022/05/12 01:28:37;;;;;;;15.95;3.63;;;14.60;71.90;;;;;;5012895;28;20116;-91
2022/05/12 01:31:05;;;;;;;11.77;3.28;;;14.60;72.00;;;;;;5012439;28;20482;-91
2022/05/12 01:33:34;;;;;;;15.90;3.85;;;14.60;72.00;;;;;;5015946;28;20053;-93
2022/05/12 01:36:01;;;;;;;14.07;3.80;;;14.60;72.10;;;;;;5015554;28;20107;-92
2022/05/12 01:38:28;;;;;;;18.27;4.55;;;14.50;72.10;;;;;;5016032;28;20054;-92
2022/05/12 01:40:55;;;;;;;11.05;3.20;;;14.50;72.20;;;;;;5032495;28;20143;-94
2022/05/12 01:43:22;;;;;;;15.25;3.65;;;14.50;72.20;;;;;;5015950;28;20053;-91
2022/05/12 01:45:49;;;;;;;15.02;3.90;;;14.50;72.30;;;;;;5015791;28;20052;-93
2022/05/12 01:48:17;;;;;;;15.35;3.90;;;14.50;72.30;;;;;;5031962;28;20049;-92
2022/05/12 01:50:46;;;;;;;16.48;3.65;;;14.40;72.40;;;;;;5015980;28;20054;-91
2022/05/12 01:53:15;;;;;;;17.13;4.18;;;14.40;72.40;;;;;;5032435;28;20061;-92
2022/05/12 01:55:43;;;;;;;14.07;3.60;;;14.40;72.40;;;;;;5032212;28;20099;-91
2022/05/12 01:58:10;;;;;;;14.63;3.58;;;14.40;72.50;;;;;;5015668;28;20045;-93
2022/05/12 02:00:38;;;;;;;13.57;3.50;;;14.40;72.50;;;;;;5038749;28;20140;-91
2022/05/12 02:03:05;;;;;;;14.93;3.72;;;14.40;72.60;;;;;;5047460;28;20044;-92
2022/05/12 02:05:35;;;;;;;14.50;3.38;;;14.40;72.60;;;;;;5073912;28;20109;-92
2022/05/12 02:08:04;;;;;;;12.40;2.85;;;14.40;72.60;;;;;;5073657;28;20177;-91
2022/05/12 02:10:38;;;;;;;16.25;3.60;;;14.40;72.60;;;;;;5057995;28;20462;-93
2022/05/12 02:13:06;;;;;;;;;;;14.40;72.60;;;;;;5065227;28;20105;-93
2022/05/12 02:15:34;;;;;;;18.17;4.65;;;14.40;72.60;;;;;;5072284;28;19974;-91
2022/05/12 02:18:01;;;;;;;15.10;3.35;;;14.30;72.60;;;;;;5073633;28;20044;-91
2022/05/12 02:20:28;;;;;;;17.77;4.30;;;14.30;72.60;;;;;;5072185;28;20056;-91
2022/05/12 02:22:55;;;;;;;15.18;3.83;;;14.30;72.60;;;;;;5072582;28;20078;-90
2022/05/12 02:25:22;;;;;;;17.27;4.20;;;14.30;72.60;;;;;;5072165;28;20056;-91
2022/05/12 02:27:51;;;;;;;18.40;3.70;;;14.20;72.70;;;;;;5073149;28;20509;-92
2022/05/12 02:30:28;;;;;;;14.77;4.07;;;14.20;72.70;;;;;;5072921;28;20518;-94
2022/05/12 02:32:55;;;;;;;19.05;4.15;;;14.20;72.70;;;;;;5073767;28;20098;-93
2022/05/12 02:35:23;;;;;;;14.95;3.80;;;14.20;72.70;;;;;;5072502;28;20056;-93
2022/05/12 02:37:50;;;;;;;16.90;4.47;;;14.10;72.70;;;;;;5071664;28;20064;-92
2022/05/12 02:40:19;;;;;;;16.45;4.78;;;14.10;72.70;;;;;;5073153;28;20114;-93
2022/05/12 02:42:47;;;;;;;14.65;4.07;;;14.10;72.80;;;;;;5071864;28;20134;-93
2022/05/12 02:45:15;;;;;;;14.25;4.00;;;14.10;72.70;;;;;;5072378;28;20083;-92
2022/05/12 02:47:42;;;;;;;15.88;4.35;;;14.00;72.70;;;;;;5073560;28;20060;-90
2022/05/12 02:50:12;;;;;;;17.70;5.10;;;14.00;72.80;;;;;;5073554;28;20062;-92
2022/05/12 02:52:39;;;;;;;14.18;4.65;;;14.00;72.80;;;;;;5069915;28;20048;-90
2022/05/12 02:55:06;;;;;;;17.23;4.70;;;14.00;72.80;;;;;;5073264;28;20137;-90
2022/05/12 02:57:34;;;;;;;20.02;5.38;;;14.00;72.80;;;;;;5072649;28;20048;-90
2022/05/12 03:00:05;;;;;;;12.90;4.05;;;14.00;72.80;;;;;;5072226;28;20052;-91
2022/05/12 03:02:32;;;;;;;15.70;4.43;;;13.90;72.80;;;;;;5073114;28;20055;-90
2022/05/12 03:04:59;;;;;;;15.63;4.95;;;13.90;72.90;;;;;;5073123;28;20053;-91
2022/05/12 03:07:26;;;;;;;16.63;4.78;;;13.90;72.90;;;;;;5073243;28;20456;-93
2022/05/12 03:09:53;;;;;;;16.73;4.18;;;13.90;72.90;;;;;;5072948;28;20117;-92
2022/05/12 03:12:20;;;;;;;19.63;5.05;;;13.90;72.90;;;;;;5073033;28;20429;-91
2022/05/12 03:14:47;;;;;;;14.82;4.68;;;13.90;72.90;;;;;;5072109;28;20067;-93
2022/05/12 03:17:14;;;;;;;15.35;4.28;;;13.80;72.90;;;;;;5072215;28;20056;-92
2022/05/12 03:19:41;;;;;;;16.17;5.15;;;13.80;73.00;;;;;;5051967;28;20056;-92
2022/05/12 03:22:08;;;;;;;17.70;4.50;;;13.80;73.00;;;;;;5052086;28;20107;-92
2022/05/12 03:24:35;;;;;;;19.10;5.35;;;13.80;73.00;;;;;;5052734;28;20053;-92
2022/05/12 03:27:02;;;;;;;14.77;4.70;;;13.80;73.10;;;;;;5055502;28;20118;-89
2022/05/12 03:29:29;;;;;;;19.30;5.47;;;13.70;73.10;;;;;;5055490;28;20107;-92
2022/05/12 03:31:56;;;;;;;17.40;5.25;;;13.70;73.10;;;;;;5055789;28;20103;-91
2022/05/12 03:34:22;;;;;;;21.20;5.28;;;13.70;73.20;;;;;;5073755;28;20442;-92
2022/05/12 03:36:49;;;;;;;18.00;5.22;;;13.70;73.20;;;;;;5075253;28;20052;-92
2022/05/12 03:39:16;;;;;;;16.55;4.95;;;13.70;73.20;;;;;;5075824;28;20114;-92
2022/05/12 03:41:43;;;;;;;19.63;5.13;;;13.70;73.20;;;;;;5075074;28;20057;-92
2022/05/12 03:46:55;;;;;;;17.10;5.25;;;13.60;73.30;;;;;;5076288;28;20049;-91
2022/05/12 03:49:22;;;;;;;19.15;5.47;;;13.60;73.30;;;;;;5075165;28;20114;-90
2022/05/12 03:51:49;;;;;;;15.25;4.43;;;13.60;73.40;;;;;;5075351;28;20106;-91
2022/05/12 03:54:16;;;;;;;18.55;4.93;;;13.60;73.40;;;;;;5074722;28;20122;-91
2022/05/12 03:56:43;;;;;;;15.07;4.60;;;13.60;73.40;;;;;;5074957;28;20053;-92
2022/05/12 03:59:10;;;;;;;20.05;5.07;;;13.60;73.40;;;;;;5074697;28;20052;-90
2022/05/12 04:01:37;;;;;;;14.45;4.10;;;13.50;73.40;;;;;;5054752;28;20056;-90
2022/05/12 04:04:05;;;;;;;20.38;4.97;;;13.50;73.40;;;;;;5054605;28;20118;-91
2022/05/12 04:06:32;;;;;;;16.42;4.90;;;13.50;73.40;;;;;;5055096;28;20056;-91
2022/05/12 04:08:59;;;;;;;16.20;4.78;;;13.50;73.50;;;;;;5055628;28;20110;-90
2022/05/12 04:11:26;;;;;;;19.50;5.45;;;13.50;73.50;;;;;;5054416;28;20045;-90
2022/05/12 04:13:52;;;;;;;17.00;4.35;;;13.50;73.50;;;;;;5072585;28;20052;-92
2022/05/12 04:16:20;;;;;;;16.55;4.68;;;13.40;73.50;;;;;;5074259;28;20445;-90
2022/05/12 04:18:47;;;;;;;16.80;4.43;;;13.50;73.50;;;;;;5073580;28;20060;-89
2022/05/12 04:21:16;;;;;;;15.80;4.43;;;13.50;73.50;;;;;;5074240;28;20060;-92
2022/05/12 04:23:44;;;;;;;12.85;4.28;;;13.40;73.40;;;;;;5074110;28;20064;-88
2022/05/12 04:26:11;;;;;;;16.63;4.53;;;13.40;73.40;;;;;;5073401;28;20048;-91
2022/05/12 04:28:38;;;;;;;15.95;4.20;;;13.40;73.40;;;;;;5074115;28;20048;-90
2022/05/12 04:31:05;;;;;;;14.45;4.15;;;13.40;73.40;;;;;;5073558;28;20048;-89
2022/05/12 04:36:17;;;;;;;18.85;4.43;;;13.40;73.40;;;;;;5074177;28;20056;-90
2022/05/12 04:38:44;;;;;;;14.85;4.55;;;13.40;73.50;;;;;;5072730;28;20480;-90
2022/05/12 04:41:11;;;;;;;12.43;3.92;;;13.40;73.50;;;;;;5074041;28;20048;-89
2022/05/12 04:43:38;;;;;;;13.43;3.90;;;13.40;73.50;;;;;;5073035;28;20102;-89
2022/05/12 04:46:06;;;;;;;13.25;4.50;;;13.30;73.50;;;;;;5073610;28;20094;-89
2022/05/12 04:48:34;;;;;;;21.33;5.03;;;13.30;73.50;;;;;;5073338;28;20068;-90
2022/05/12 04:51:03;;;;;;;14.15;3.28;;;13.30;73.50;;;;;;5073377;28;20106;-90
2022/05/12 04:53:30;;;;;;;14.57;3.40;;;13.30;73.50;;;;;;5072959;28;20052;-90
2022/05/12 04:55:57;;;;;;;17.02;4.75;;;13.30;73.50;;;;;;5073186;28;20052;-92
2022/05/12 04:58:26;;;;;;;19.00;3.85;;;13.30;73.50;;;;;;5073216;28;20044;-90
2022/05/12 05:00:53;;;;;;;17.48;4.15;;;13.20;73.50;;;;;;5073903;28;20048;-91
2022/05/12 05:03:20;;;;;;;14.82;4.45;;;13.20;73.50;;;;;;5074257;28;20422;-91
2022/05/12 05:05:49;;;;;;;17.35;4.70;;;13.20;73.50;;;;;;5072885;28;20473;-91
2022/05/12 05:08:19;;;;;;;19.25;4.18;;;13.20;73.60;;;;;;5073470;28;20044;-90
2022/05/12 05:10:47;;;;;;;13.13;3.63;;;13.20;73.60;;;;;;5073042;28;20048;-89
2022/05/12 05:13:14;;;;;;;19.23;4.43;;;13.20;73.60;;;;;;5072963;28;20044;-89
2022/05/12 05:15:41;;;;;;;15.60;4.05;;;13.20;73.60;;;;;;5073228;28;20052;-90
2022/05/12 05:18:14;;;;;;;16.95;4.05;;;13.20;73.60;;;;;;5074142;28;20059;-89
2022/05/12 05:20:43;;;;;;;13.43;4.22;;;13.10;73.70;;;;;;5057302;28;20059;-90
2022/05/12 05:23:11;;;;;;;14.45;3.80;;;13.20;73.70;;;;;;5072499;28;20583;-90
2022/05/12 05:25:39;;;;;;;21.27;4.70;;;13.20;73.80;;;;;;5072836;28;20053;-91
2022/05/12 05:28:09;;;;;;;16.55;3.67;;;13.10;73.80;;;;;;5072368;28;20048;-89
2022/05/12 05:30:36;;;;;;;16.15;4.35;;;13.10;73.90;;;;;;5071873;28;20044;-89
2022/05/12 05:33:03;;;;;;;16.02;3.88;;;13.10;73.90;;;;;;5066875;28;20053;-92
2022/05/12 05:35:30;;;;;;;12.32;3.55;;;13.10;74.00;;;;;;5052288;28;20048;-90
2022/05/12 05:37:57;;;;;;;14.90;3.97;;;13.10;74.00;;;;;;5066853;28;20048;-91
2022/05/12 05:40:25;;;;;;;14.27;3.70;;;13.10;74.10;;;;;;5072813;28;20129;-92
2022/05/12 05:42:53;;;;;;;12.48;3.40;;;13.10;74.20;;;;;;5073559;28;20098;-91
2022/05/12 05:45:22;;;;;;;11.52;3.08;;;13.10;74.30;;;;;;5072194;28;20577;-93
2022/05/12 05:47:54;;;;;;;13.50;2.65;;;13.10;74.30;;;;;;5073116;28;20053;-91
2022/05/12 05:50:24;;;;;;;17.13;3.80;;;13.10;74.40;;;;;;5073407;28;20053;-91
2022/05/12 05:55:36;;;;;;;13.45;3.50;;;13.20;74.50;;;;;;5073646;28;20106;-93
2022/05/12 05:58:05;;;;;;;14.25;3.33;;;13.10;74.60;;;;;;5073902;28;20106;-90
2022/05/12 06:00:34;;;;;;;14.80;3.53;;;13.20;74.70;;;;;;5062150;28;20048;-92
2022/05/12 06:03:02;;;;;;;12.27;3.40;;;13.20;74.70;;;;;;5059477;28;20102;-91
2022/05/12 06:05:29;;;;;;;14.70;3.53;;;13.20;74.80;;;;;;5073803;28;20391;-92
2022/05/12 06:07:57;;;;;;;14.20;3.47;;;13.20;74.80;;;;;;5072297;28;20117;-91
2022/05/12 06:10:24;;;;;;;15.48;3.70;;;13.20;74.90;;;;;;5073227;28;20064;-91
2022/05/12 06:12:51;;;;;;;18.50;3.13;;;13.20;74.90;;;;;;5073459;28;20056;-92
2022/05/12 06:15:18;;;;;;;17.05;3.63;;;13.30;75.00;;;;;;5072632;28;20059;-91
2022/05/12 06:17:45;;;;;;;16.33;3.83;;;13.30;75.00;;;;;;5071258;28;20501;-93
2022/05/12 06:20:22;;;;;;;11.38;3.33;;;13.30;75.00;;;;;;5073251;28;20611;-92
2022/05/12 06:25:36;;;;;;;13.82;3.25;;;13.40;75.10;;;;;;5072583;28;20082;-90
2022/05/12 06:30:49;;;;;;;13.23;3.13;;;13.40;75.10;;;;;;5072809;28;20036;-91
2022/05/12 06:33:17;;;;;;;15.55;4.03;;;13.50;75.10;;;;;;5072984;28;20056;-90
2022/05/12 06:35:44;;;;;;;15.93;3.60;;;13.60;75.10;;;;;;5072792;28;20060;-90
2022/05/12 06:38:11;;;;;;;15.40;3.75;;;13.60;75.10;;;;;;5072147;28;20103;-91
2022/05/12 06:40:39;;;;;;;17.80;3.08;;;13.60;75.10;;;;;;5072027;28;20049;-90
2022/05/12 06:43:08;;;;;;;13.40;3.20;;;13.70;75.10;;;;;;5073271;28;20097;-90
2022/05/12 06:45:36;;;;;;;12.43;3.15;;;13.70;75.10;;;;;;5073177;28;20049;-91
2022/05/12 06:48:04;;;;;;;11.70;3.25;;;13.80;75.10;;;;;;5071984;28;20049;-91
2022/05/12 06:50:31;;;;;;;13.23;3.33;;;13.80;75.10;;;;;;5073240;28;20052;-91
2022/05/12 06:53:16;;;;;;;8.98;2.88;;;13.90;75.00;;;;;;5072729;28;20040;-94
2022/05/12 06:55:43;;;;;;;15.45;3.47;;;13.90;75.00;;;;;;5074726;28;20052;-94
2022/05/12 06:58:11;;;;;;;16.75;3.10;;;13.90;75.00;;;;;;5073451;28;20044;-93
2022/05/12 07:00:37;;;;;;;14.85;3.53;;;14.00;75.00;;;;;;5075791;28;20052;-93
2022/05/12 07:03:06;;;;;;;12.80;3.00;;;14.00;74.90;;;;;;5076955;28;20057;-91
2022/05/12 07:05:34;;;;;;;17.40;2.80;;;14.00;74.90;;;;;;5074752;28;20056;-90
2022/05/12 07:08:02;;;;;;;12.13;3.03;;;14.10;74.90;;;;;;5076558;28;20051;-90
2022/05/12 07:10:29;;;;;;;15.38;3.47;;;14.20;74.80;;;;;;5088470;28;20494;-92
2022/05/12 07:12:56;;;;;;;9.95;3.03;;;14.20;74.70;;;;;;5070834;28;20049;-90
2022/05/12 07:15:25;;;;;;;13.57;3.33;;;14.30;74.70;;;;;;5071143;28;20526;-89
2022/05/12 07:17:53;;;;;;;11.18;3.15;;;14.30;74.70;;;;;;5085886;28;20098;-91
2022/05/12 07:28:38;;;;;;;12.10;3.15;;;14.50;74.50;;;;;;5055693;28;20049;-90
2022/05/12 07:31:06;;;;;;;17.38;3.38;;;14.60;74.50;;;;;;5078495;28;20055;-92
2022/05/12 07:33:41;;;;;;;11.77;2.63;;;14.60;74.40;;;;;;5083463;28;20131;-92
2022/05/12 07:36:14;;;;;;;20.25;2.92;;;14.70;74.30;;;;;;5072532;28;20529;-91
2022/05/12 07:38:43;;;;;;;11.98;2.78;;;14.70;74.20;;;;;;5058776;28;20090;-91
2022/05/12 07:41:12;;;;;;;10.70;2.83;;;14.80;74.10;;;;;;5095826;28;20055;-90
2022/05/12 07:43:40;;;;;;;12.00;2.65;;;14.80;74.00;;;;;;5074022;28;20502;-90
2022/05/12 07:46:08;;;;;;;10.40;2.97;;;14.90;73.90;;;;;;5058834;28;20049;-89
2022/05/12 07:48:36;;;;;;;10.85;2.95;;;14.90;73.80;;;;;;5067178;28;20044;-89
2022/05/12 07:51:03;;;;;;;10.73;3.00;;;14.90;73.70;;;;;;5087478;28;20126;-90
2022/05/12 07:53:49;;;;;;;8.18;2.85;;;15.00;73.60;;;;;;5089450;28;20094;-88
2022/05/12 07:56:20;;;;;;;14.35;3.15;;;15.10;73.60;;;;;;5054828;28;20052;-90
2022/05/12 07:58:47;;;;;;;13.20;2.92;;;15.10;73.50;;;;;;5090129;28;20044;-89
2022/05/12 08:01:17;;;;;;;13.63;2.83;;;15.20;73.50;;;;;;5077680;28;20578;-90
2022/05/12 08:03:44;;;;;;;12.50;3.25;;;15.20;73.40;;;;;;5087781;28;20052;-90
2022/05/12 08:06:14;;;;;;;14.00;2.75;;;15.30;73.20;;;;;;5088286;28;20102;-90
2022/05/12 08:08:42;;;;;;;16.40;3.35;;;15.30;73.10;;;;;;5075554;28;20044;-89
2022/05/12 08:11:10;;;;;;;17.20;3.25;;;15.40;72.90;;;;;;5054148;28;20118;-89
2022/05/12 08:13:39;;;;;;;15.30;3.30;;;15.40;72.80;;;;;;5090971;28;20501;-89
2022/05/12 08:16:06;;;;;;;13.18;2.78;;;15.50;72.70;;;;;;5062758;28;20053;-92
2022/05/12 08:18:35;;;;;;;10.65;2.45;;;15.60;72.60;;;;;;5071194;28;20052;-89
2022/05/12 08:21:03;;;;;;;11.05;3.08;;;15.60;72.50;;;;;;5085783;28;20048;-90
2022/05/12 08:23:30;;;;;;;9.70;2.80;;;15.70;72.40;;;;;;5074448;28;20053;-89
2022/05/12 08:25:57;;;;;;;12.63;3.10;;;15.80;72.30;;;;;;5074874;28;20090;-90
2022/05/12 08:28:26;;;;;;;9.85;2.65;;;15.90;72.10;;;;;;5076214;28;20048;-90
2022/05/12 08:30:54;;;;;;;9.90;2.83;;;15.90;72.00;;;;;;5079905;28;20044;-90
2022/05/12 08:33:21;;;;;;;12.48;2.90;;;15.90;71.90;;;;;;5066747;28;20110;-90
2022/05/12 08:35:49;;;;;;;14.07;2.75;;;16.00;71.80;;;;;;5088731;28;20399;-88
2022/05/12 08:38:17;;;;;;;10.30;2.72;;;16.10;71.60;;;;;;5089086;28;20040;-88
2022/05/12 08:41:02;;;;;;;10.18;2.53;;;16.10;71.50;;;;;;5076154;28;20061;-89
2022/05/12 08:43:57;;;;;;;8.80;2.38;;;16.30;71.30;;;;;;5074296;28;20048;-89
2022/05/12 08:46:38;;;;;;;10.18;2.42;;;16.30;71.10;;;;;;5052598;28;20118;-89
2022/05/12 08:49:23;;;;;;;12.10;2.53;;;16.40;70.90;;;;;;5073110;28;20057;-90
2022/05/12 08:51:55;;;;;;;12.90;2.58;;;16.40;70.70;;;;;;5078102;28;20045;-90
2022/05/12 08:54:24;;;;;;;11.90;2.63;;;16.50;70.60;;;;;;5073202;28;20044;-92
2022/05/12 08:56:59;;;;;;;12.45;2.90;;;16.60;70.40;;;;;;5074226;28;20044;-91
2022/05/12 08:59:26;;;;;;;11.95;3.05;;;16.70;70.20;;;;;;5070988;28;20098;-92
2022/05/12 09:02:19;;;;;;;9.82;2.65;;;16.80;70.10;;;;;;5054281;28;20071;-91
2022/05/12 09:04:49;;;;;;;9.32;2.22;;;16.80;69.90;;;;;;5080092;28;20078;-90
2022/05/12 09:10:51;;;;;;;10.77;2.58;;;17.00;69.50;;;;;;5074886;28;20414;-91
2022/05/12 09:13:32;;;;;;;10.95;2.67;;;17.10;69.20;;;;;;5087001;28;20056;-89
2022/05/12 09:16:34;;;;;;;9.57;2.35;;;17.20;69.00;;;;;;5084752;28;20445;-91
2022/05/12 09:19:01;;;;;;;8.68;1.92;;;17.30;68.80;;;;;;5062285;28;20049;-90
2022/05/12 09:21:30;;;;;;;9.00;2.35;;;17.40;68.60;;;;;;5073013;28;20105;-89
2022/05/12 09:23:57;;;;;;;9.88;2.17;;;17.40;68.50;;;;;;5073953;28;20056;-90
2022/05/12 09:26:37;;;;;;;7.35;2.00;;;17.40;68.20;;;;;;5072559;28;20052;-89
2022/05/12 09:29:12;;;;;;;10.20;2.13;;;17.50;68.00;;;;;;5093499;28;20132;-90
2022/05/12 09:31:42;;;;;;;7.72;2.03;;;17.60;67.70;;;;;;5074126;28;20113;-89
2022/05/12 09:34:21;;;;;;;8.88;2.60;;;17.60;67.40;;;;;;5071952;28;20040;-90
2022/05/12 09:36:48;;;;;;;7.10;1.83;;;17.70;67.10;;;;;;5086345;28;20109;-90
2022/05/12 09:39:40;;;;;;;7.97;2.10;;;17.80;66.90;;;;;;5086551;28;20467;-91
2022/05/12 09:42:17;;;;;;;8.75;2.33;;;17.80;66.80;;;;;;5078297;28;20044;-90
2022/05/12 09:44:56;;;;;;;13.20;2.42;;;17.90;66.60;;;;;;5084547;28;20127;-90
2022/05/12 09:47:25;;;;;;;7.93;2.28;;;17.90;66.40;;;;;;5072901;28;20109;-91
2022/05/12 09:50:18;;;;;;;10.48;2.08;;;18.00;66.30;;;;;;5053273;28;20414;-90
2022/05/12 09:53:00;;;;;;;7.82;2.03;;;18.00;66.10;;;;;;5053122;28;20079;-90
2022/05/12 09:55:30;;;;;;;7.80;2.00;;;18.10;65.90;;;;;;5071971;28;20418;-88
2022/05/12 09:57:59;;;;;;;8.90;2.10;;;18.30;65.60;;;;;;5080790;28;20052;-87
2022/05/12 10:01:03;;;;;;;8.95;1.90;;;18.30;65.40;;;;;;5079894;28;20040;-88
2022/05/12 10:09:24;;;;;;;7.30;1.95;;;18.60;64.30;;;;;;5072719;28;20090;-89
2022/05/12 10:12:19;;;;;;;5.03;1.80;;;18.70;63.90;;;;;;5085775;28;20041;-89
2022/05/12 10:15:00;;;;;;;6.15;1.92;;;18.70;63.60;;;;;;5053182;28;20048;-88
2022/05/12 10:17:33;;;;;;;9.88;1.73;;;18.90;63.20;;;;;;5087243;28;20461;-91
2022/05/12 10:20:33;;;;;;;11.30;2.00;;;18.90;62.90;;;;;;5076991;28;20580;-89
2022/05/12 10:23:14;;;;;;;6.93;1.60;;;19.00;62.60;;;;;;5051015;28;20288;-89
2022/05/12 10:26:07;;;;;;;7.03;1.80;;;19.10;62.40;;;;;;5074189;28;20056;-90
2022/05/12 10:29:08;;;;;;;7.03;1.60;;;19.20;62.10;;;;;;5082274;28;20040;-89
2022/05/12 10:32:09;;;;;;;9.35;1.75;;;19.30;61.70;;;;;;5075310;28;20474;-89
2022/05/12 10:34:51;;;;;;;7.47;1.75;;;19.40;61.30;;;;;;5075669;28;20048;-90
2022/05/12 10:37:39;;;;;;;6.88;1.50;;;19.50;60.80;;;;;;5073037;28;20049;-88
2022/05/12 10:40:31;;;;;;;5.32;1.60;;;19.60;60.40;;;;;;5036394;28;20518;-89
2022/05/12 10:43:35;;;;;;;5.97;1.80;;;19.70;60.00;;;;;;5037757;28;20049;-89
2022/05/12 10:46:19;;;;;;;7.63;1.75;;;19.80;59.70;;;;;;5033695;28;20107;-89
2022/05/12 10:49:15;;;;;;;7.85;1.92;;;19.90;59.40;;;;;;5033840;28;20044;-88
2022/05/12 10:52:06;;;;;;;7.75;1.75;;;19.90;59.10;;;;;;5036359;28;20049;-88
2022/05/12 10:54:49;;;;;;;6.45;1.60;;;20.00;58.60;;;;;;5033397;28;20135;-88
2022/05/12 10:57:51;;;;;;;6.57;1.43;;;20.10;58.20;;;;;;5029139;28;20048;-89
2022/05/12 11:00:30;;;;;;;9.38;2.63;;;20.10;57.90;;;;;;4984228;28;20046;-88
2022/05/12 11:03:06;;;;;;;6.88;1.63;;;20.10;57.70;;;;;;4972244;28;20105;-88
2022/05/12 11:05:38;;;;;;;6.47;1.48;;;20.10;57.30;;;;;;4970481;28;20090;-88
2022/05/12 11:08:16;;;;;;;4.47;1.50;;;20.10;57.00;;;;;;4959225;28;20074;-87
2022/05/12 11:10:49;;;;;;;6.78;1.60;;;20.10;56.70;;;;;;4969873;28;20095;-88
2022/05/12 11:13:22;;;;;;;5.85;1.70;;;20.10;56.50;;;;;;4974150;28;20508;-88
2022/05/12 11:16:01;;;;;;;8.23;1.80;;;20.10;56.40;;;;;;4974072;28;20051;-88
2022/05/12 11:18:56;;;;;;;5.68;1.75;;;20.10;56.30;;;;;;5003445;28;20049;-87
2022/05/12 11:21:28;;;;;;;8.52;1.85;;;20.10;56.20;;;;;;5013091;28;20084;-89
2022/05/12 11:24:22;;;;;;;4.50;1.52;;;20.00;56.20;;;;;;5010391;28;20049;-88
2022/05/12 11:27:11;;;;;;;5.05;1.30;;;20.00;56.20;;;;;;4995936;28;20089;-88
2022/05/12 11:29:58;;;;;;;5.20;1.40;;;20.00;56.20;;;;;;5008885;28;20491;-88
2022/05/12 11:32:46;;;;;;;7.40;1.90;;;20.00;56.20;;;;;;5022780;28;20539;-87
2022/05/12 11:35:21;;;;;;;5.28;1.50;;;20.00;56.20;;;;;;5021589;28;20100;-88
2022/05/12 11:37:50;;;;;;;9.15;1.80;;;19.90;56.20;;;;;;5082716;28;20044;-89
2022/05/12 11:40:48;;;;;;;7.68;1.58;;;19.90;56.20;;;;;;5075162;28;20098;-89
2022/05/12 11:46:42;;;;;;;4.95;1.60;;;20.00;56.20;;;;;;5081359;28;20048;-89
2022/05/12 11:49:25;;;;;;;5.10;1.58;;;20.10;56.20;;;;;;5078778;28;20044;-89
2022/05/12 11:52:15;;;;;;;6.20;1.40;;;20.20;56.00;;;;;;5082260;28;20113;-88
2022/05/12 11:54:56;;;;;;;3.83;1.17;;;20.30;55.80;;;;;;5083617;28;20044;-88
2022/05/12 11:57:40;;;;;;;8.75;1.80;;;20.30;55.60;;;;;;5076809;28;20044;-89
2022/05/12 12:00:32;;;;;;;6.13;1.38;;;20.40;55.50;;;;;;5075117;28;20514;-90
2022/05/12 12:03:19;;;;;;;5.72;1.50;;;20.40;55.40;;;;;;5086140;28;20576;-80
2022/05/12 12:05:49;;;;;;;8.43;1.60;;;20.50;55.20;;;;;;5056031;28;20049;-80
2022/05/12 12:08:45;;;;;;;2.92;1.10;;;20.60;54.90;;;;;;5075803;28;20109;-80
2022/05/12 12:11:15;;;;;;;4.72;1.50;;;20.70;54.70;;;;;;5082131;28;20139;-80
2022/05/12 12:14:00;;;;;;;4.55;1.27;;;20.80;54.50;;;;;;5076149;28;20048;-79
2022/05/12 12:17:00;;;;;;;8.38;1.60;;;20.80;54.30;;;;;;5074674;28;20112;-80
2022/05/12 12:19:47;;;;;;;4.75;1.38;;;20.80;54.20;;;;;;5075818;28;20056;-79
2022/05/12 12:22:20;;;;;;;5.85;1.30;;;20.90;54.00;;;;;;5074503;28;20407;-80
2022/05/12 12:25:16;;;;;;;6.13;1.33;;;21.00;53.80;;;;;;5075585;28;20182;-79
2022/05/12 12:27:52;;;;;;;6.63;1.55;;;21.00;53.80;;;;;;5068602;28;20403;-79
2022/05/12 12:30:31;;;;;;;4.90;1.50;;;21.10;53.70;;;;;;5074037;28;20048;-79
2022/05/12 12:33:20;;;;;;;5.22;1.48;;;21.20;53.50;;;;;;5072413;28;20095;-80
2022/05/12 12:36:00;;;;;;;6.28;1.63;;;21.20;53.30;;;;;;5054182;28;20045;-80
2022/05/12 12:38:42;;;;;;;7.47;1.42;;;21.20;53.10;;;;;;5073058;28;20429;-79
2022/05/12 12:41:10;;;;;;;8.07;1.75;;;21.30;53.00;;;;;;5085954;28;20056;-80
2022/05/12 12:43:42;;;;;;;8.48;1.80;;;21.30;52.90;;;;;;5073182;28;20041;-79
2022/05/12 12:46:19;;;;;;;6.65;1.30;;;21.40;52.80;;;;;;5073457;28;20052;-80
2022/05/12 12:48:53;;;;;;;5.93;1.38;;;21.30;52.60;;;;;;5073795;28;20072;-80
2022/05/12 12:51:31;;;;;;;;;;;21.40;52.50;;;;;;5074279;28;20051;-79
2022/05/12 12:57:10;;;;;;;7.35;1.45;;;21.40;52.30;;;;;;5059236;28;20094;-79
2022/05/12 12:59:58;;;;;;;8.05;1.55;;;21.40;52.30;;;;;;5069687;28;20110;-80
2022/05/12 13:02:33;;;;;;;4.85;1.35;;;21.40;52.30;;;;;;5086045;28;20109;-79
2022/05/12 13:05:20;;;;;;;6.22;1.50;;;21.40;52.20;;;;;;5085128;28;20515;-79
2022/05/12 13:08:05;;;;;;;7.03;1.40;;;21.40;52.00;;;;;;5074947;28;20040;-79
2022/05/12 13:10:43;;;;;;;7.43;1.38;;;21.40;51.90;;;;;;5073084;28;20109;-79
2022/05/12 13:13:10;;;;;;;9.20;1.73;;;21.40;52.00;;;;;;5073125;28;20052;-79
2022/05/12 13:15:40;;;;;;;5.70;1.38;;;21.40;52.10;;;;;;5072955;28;20045;-80
2022/05/12 13:18:15;;;;;;;7.22;1.52;;;21.30;52.10;;;;;;5072519;28;20051;-79
2022/05/12 13:21:00;;;;;;;6.22;1.40;;;21.30;52.00;;;;;;5071093;28;20058;-80
2022/05/12 13:23:30;;;;;;;6.53;1.50;;;21.30;52.00;;;;;;5072158;28;20460;-79
2022/05/12 13:26:02;;;;;;;8.43;1.52;;;21.30;52.00;;;;;;5075871;28;20433;-79
2022/05/12 13:28:31;;;;;;;4.88;1.30;;;21.30;52.00;;;;;;5072874;28;20045;-79
2022/05/12 13:31:23;;;;;;;8.07;1.67;;;21.20;52.00;;;;;;5072811;28;20045;-79
2022/05/12 13:34:20;;;;;;;5.90;1.40;;;21.20;52.00;;;;;;5072914;28;20048;-80
2022/05/12 13:36:53;;;;;;;5.53;1.30;;;21.20;52.10;;;;;;5074090;28;20048;-79
2022/05/12 13:39:41;;;;;;;5.80;1.38;;;21.10;52.10;;;;;;5072874;28;20460;-80
2022/05/12 13:42:08;;;;;;;7.90;1.60;;;21.10;52.20;;;;;;5072970;28;20113;-80
2022/05/12 13:44:37;;;;;;;8.23;1.58;;;21.10;52.10;;;;;;5069649;28;20045;-79
2022/05/12 13:47:06;;;;;;;8.73;1.90;;;21.00;52.20;;;;;;5076408;28;20048;-79
2022/05/12 13:49:40;;;;;;;6.28;1.60;;;21.00;52.30;;;;;;5074319;28;20399;-80